Aérodrome :
LOGIN :

S'inscrire | Disclaimer

   EN    FR    IT 

 










Légende :    VFR   VFR Marginal   IFR   IFR Intensif   IFR Très Intensif
Visi : 
Plafond : 
>= 8 km
>= 3000ft
5 à 8 km
1000 à 3000 ft
1500m à 5 km
500 à 1000 ft
800 à 1500m
200 à 500 ft
< 800m
< 200 ft
Symboles :   Orages  Brouillard  Fortes neiges  Fortes précipitations  Vent > 20 kt
SIGMETs :   Divers  Orages  Givrage  Turbulence  Onde Orograph.  Cendres Volcan.






- Altitude de l'aérodrome : -15 ft
- Code IATA : RTM


EHRD - Rotterdam Zestienhoven

DERNIER METAR :
  • 091025Z AUTO 19010KT 160V220 9999 -DZ BKN006 OVC008 05/04 Q1002 BECMG BKN020 TEMPO 7000 -RADZ

METARs EXPIRÉS :
  • 090955Z AUTO 19010KT 150V220 9999 SCT007 OVC008 05/04 Q1002 BECMG BKN020 TEMPO 7000 -RADZ
  • 090925Z AUTO 18010KT 150V210 9999 BKN008 OVC009 05/03 Q1002 BECMG BKN020 TEMPO 7000 -RADZ
  • 090855Z AUTO 19011KT 160V220 9999 OVC009 04/03 Q1001 BECMG BKN020 TEMPO 7000 -RADZ
  • 090825Z AUTO 18009KT 150V210 9999 BKN009 OVC010 04/03 Q1001 BECMG BKN020 TEMPO 7000 -RADZ
  • 090755Z AUTO 18009KT 9999 FEW008 OVC009 04/03 Q1001 BECMG BKN020

TAF AMD TAF EHRD
Valide du 09 à 08h jusqu'au 10 à 12h UTC


090813Z 0908/1012 18010KT 9999 BKN008
BECMG 0908/0911 BKN025
TEMPO 0908/0920 7000 -RADZ -SHRA FEW008 BKN014 SCT018TCU
PROB40 0922/1002 6000 BKN006
BECMG 1002/1005 14012KT 7000 -RA BKN006
BECMG 1007/1010 14004KT
PROB40
TEMPO 1008/1012 2500 RASN



MET'MAP, la Météo Aéronautique d'un coup d'oeil ! - Copyright ORBIFLY Décembre 2007 - Disclaimer

ORBIFLY MET'MAP TEAM :

Programmation & Développement : Alexandra Zaïnal
Sur une idée originale de : Baudouin d'Aumeries
Assistance à la programmation : Marc-Olivier Méhu
Soutien technique & logistique : Manuel Goepfert

Contact : metmap@orbifly.com




SOURCES & CREDITS :

   NOAA